createdAt,value
2023-05-08T00:01:36.747Z,19.75
2023-05-08T00:04:03.863Z,20.65
2023-05-08T00:06:30.959Z,17.67
2023-05-08T00:08:57.511Z,17.92
2023-05-08T00:11:24.262Z,18.50
2023-05-08T00:13:50.833Z,16.15
2023-05-08T00:16:17.554Z,16.20
2023-05-08T00:18:44.182Z,16.90
2023-05-08T00:21:10.791Z,17.98
2023-05-08T00:23:37.326Z,18.02
2023-05-08T00:26:03.968Z,19.05
2023-05-08T00:28:30.510Z,14.48
2023-05-08T00:31:00.694Z,15.73
2023-05-08T00:33:27.339Z,15.02
2023-05-08T00:36:01.328Z,16.63
2023-05-08T00:38:30.809Z,16.27
2023-05-08T00:40:58.127Z,16.13
2023-05-08T00:43:27.941Z,16.30
2023-05-08T00:45:55.852Z,17.20
2023-05-08T00:48:26.052Z,18.52
2023-05-08T00:50:54.083Z,15.90
2023-05-08T00:53:22.397Z,16.77
2023-05-08T00:55:49.620Z,16.80
2023-05-08T00:58:16.503Z,17.55
2023-05-08T01:00:44.577Z,18.35
2023-05-08T01:03:12.796Z,17.30
2023-05-08T01:05:40.977Z,17.60
2023-05-08T01:08:07.903Z,18.35
2023-05-08T01:10:51.266Z,18.02
2023-05-08T01:13:34.110Z,18.60
2023-05-08T01:16:10.489Z,19.55
2023-05-08T01:18:45.299Z,19.88
2023-05-08T01:21:34.848Z,18.88
2023-05-08T01:24:35.887Z,19.77
2023-05-08T01:27:16.524Z,18.70
2023-05-08T01:29:52.233Z,19.08
2023-05-08T01:32:21.701Z,19.77
2023-05-08T01:35:24.396Z,20.07
2023-05-08T01:38:09.725Z,19.83
2023-05-08T01:40:55.635Z,15.82
2023-05-08T01:43:27.926Z,15.88
2023-05-08T01:45:55.784Z,15.35
2023-05-08T01:48:33.533Z,19.15
2023-05-08T01:51:23.732Z,19.17
2023-05-08T01:54:00.816Z,18.48
2023-05-08T01:56:29.582Z,19.15
2023-05-08T01:58:58.245Z,20.90
2023-05-08T02:01:26.093Z,21.35
2023-05-08T02:03:56.206Z,19.95
2023-05-08T02:06:23.745Z,17.90
2023-05-08T02:08:51.431Z,20.35
2023-05-08T02:11:18.301Z,18.77
2023-05-08T02:13:47.085Z,17.45
2023-05-08T02:16:14.679Z,16.30
2023-05-08T02:18:45.199Z,17.52
2023-05-08T02:21:12.679Z,17.83
2023-05-08T02:23:39.881Z,17.08
2023-05-08T02:26:06.702Z,17.75
2023-05-08T02:28:36.020Z,17.15
2023-05-08T02:31:02.866Z,17.48
2023-05-08T02:37:54.460Z,15.50
2023-05-08T02:40:22.668Z,18.70
2023-05-08T02:42:49.762Z,18.55
2023-05-08T02:45:16.632Z,18.75
2023-05-08T02:47:51.138Z,20.15
2023-05-08T02:50:24.878Z,21.10
2023-05-08T02:52:54.786Z,22.08
2023-05-08T02:55:54.340Z,24.13
2023-05-08T02:58:37.039Z,20.90
2023-05-08T03:01:07.557Z,20.17
2023-05-08T03:03:45.782Z,20.20
2023-05-08T03:06:16.973Z,20.30
2023-05-08T03:08:44.998Z,22.60
2023-05-08T03:11:15.031Z,19.48
2023-05-08T03:13:42.718Z,19.77
2023-05-08T03:16:12.146Z,20.83
2023-05-08T03:18:43.487Z,20.75
2023-05-08T03:23:38.154Z,19.48
2023-05-08T03:26:04.805Z,19.70
2023-05-08T03:28:33.277Z,20.33
2023-05-08T03:31:00.788Z,20.02
2023-05-08T03:33:28.288Z,19.00
2023-05-08T03:35:55.084Z,17.13
2023-05-08T03:38:22.225Z,15.40
2023-05-08T03:40:49.261Z,27.67
2023-05-08T03:43:17.007Z,18.40
2023-05-08T03:45:45.267Z,19.42
2023-05-08T03:48:14.050Z,19.50
2023-05-08T03:50:42.166Z,23.30
2023-05-08T03:53:10.215Z,19.40
2023-05-08T03:55:37.474Z,19.92
2023-05-08T03:58:15.204Z,18.63
2023-05-08T04:01:06.785Z,18.30
2023-05-08T04:03:52.103Z,19.25
2023-05-08T04:06:30.694Z,19.48
2023-05-08T04:09:05.920Z,19.95
2023-05-08T04:11:42.008Z,19.90
2023-05-08T04:14:14.160Z,20.48
2023-05-08T04:16:48.337Z,20.15
2023-05-08T04:19:19.465Z,20.25
2023-05-08T04:21:46.941Z,23.55
2023-05-08T04:24:15.152Z,20.23
2023-05-08T04:26:44.140Z,19.85
2023-05-08T04:29:10.833Z,19.30
2023-05-08T04:31:38.804Z,20.63
2023-05-08T04:34:05.500Z,19.33
2023-05-08T04:36:33.734Z,20.83
2023-05-08T04:39:02.010Z,19.92
2023-05-08T04:41:28.901Z,23.08
2023-05-08T04:43:55.533Z,20.52
2023-05-08T04:46:22.236Z,23.60
2023-05-08T04:48:48.780Z,19.60
2023-05-08T04:51:15.329Z,24.63
2023-05-08T04:53:42.106Z,18.50
2023-05-08T04:56:08.659Z,21.15
2023-05-08T04:58:36.087Z,20.67
2023-05-08T05:01:04.028Z,21.30
2023-05-08T05:03:31.659Z,24.55
2023-05-08T05:05:59.338Z,20.92
2023-05-08T05:08:26.785Z,22.23
2023-05-08T05:10:54.268Z,18.35
2023-05-08T05:13:21.100Z,23.25
2023-05-08T05:15:47.756Z,18.52
2023-05-08T05:18:15.153Z,21.55
2023-05-08T05:20:41.754Z,18.55
2023-05-08T05:23:08.506Z,20.60
2023-05-08T05:25:35.163Z,17.30
2023-05-08T05:28:02.038Z,17.90
2023-05-08T05:30:28.845Z,26.65
2023-05-08T05:32:55.672Z,17.63
2023-05-08T05:35:25.374Z,21.73
2023-05-08T05:37:52.598Z,18.05
2023-05-08T05:40:20.012Z,35.75
2023-05-08T05:42:50.793Z,17.25
2023-05-08T05:45:18.432Z,28.17
2023-05-08T05:47:49.689Z,18.23
2023-05-08T05:50:18.562Z,27.02
2023-05-08T05:52:46.262Z,17.50
2023-05-08T05:55:13.104Z,25.17
2023-05-08T05:57:39.844Z,25.75
2023-05-08T06:00:07.202Z,21.77
2023-05-08T06:02:41.813Z,20.52
2023-05-08T06:07:39.661Z,21.40
2023-05-08T06:10:06.987Z,21.80
2023-05-08T06:12:33.766Z,32.55
2023-05-08T06:15:01.253Z,18.60
2023-05-08T06:17:27.870Z,34.08
2023-05-08T06:19:56.414Z,21.65
2023-05-08T06:22:24.190Z,25.02
2023-05-08T06:24:54.577Z,21.05
2023-05-08T06:27:22.286Z,21.67
2023-05-08T06:29:53.317Z,20.70
2023-05-08T06:32:20.554Z,20.27
2023-05-08T06:34:47.127Z,20.25
2023-05-08T06:37:13.588Z,19.92
2023-05-08T06:39:40.476Z,21.20
2023-05-08T06:42:08.247Z,19.95
2023-05-08T06:44:38.053Z,25.10
2023-05-08T06:47:04.538Z,19.42
2023-05-08T06:49:31.019Z,22.95
2023-05-08T06:51:58.231Z,18.60
2023-05-08T06:54:25.039Z,23.77
2023-05-08T06:56:53.266Z,16.98
2023-05-08T06:59:21.251Z,20.40
2023-05-08T07:01:47.921Z,17.38
2023-05-08T07:04:14.669Z,17.58
2023-05-08T07:06:41.227Z,17.67
2023-05-08T07:09:07.871Z,15.20
2023-05-08T07:11:34.394Z,19.70
2023-05-08T07:14:04.181Z,15.68
2023-05-08T07:16:30.685Z,19.42
2023-05-08T07:18:57.293Z,16.38
2023-05-08T07:21:23.873Z,19.15
2023-05-08T07:23:51.673Z,16.75
2023-05-08T07:26:18.630Z,17.08
2023-05-08T07:28:45.253Z,16.27
2023-05-08T07:31:12.046Z,16.02
2023-05-08T07:33:38.625Z,18.05
2023-05-08T07:36:05.497Z,15.77
2023-05-08T07:38:32.067Z,17.73
2023-05-08T07:40:59.623Z,17.85
2023-05-08T07:43:26.568Z,16.80
2023-05-08T07:45:53.133Z,17.30
2023-05-08T07:48:19.898Z,17.40
2023-05-08T07:50:46.411Z,17.88
2023-05-08T07:53:13.035Z,16.10
2023-05-08T07:55:39.654Z,16.42
2023-05-08T07:58:06.638Z,13.93
2023-05-08T08:00:33.220Z,18.30
2023-05-08T08:02:59.781Z,13.05
2023-05-08T08:05:26.358Z,18.08
2023-05-08T08:07:52.888Z,16.23
2023-05-08T08:10:19.397Z,19.40
2023-05-08T08:12:45.991Z,16.95
2023-05-08T08:15:12.846Z,17.90
2023-05-08T08:17:39.682Z,15.75
2023-05-08T08:20:06.817Z,14.30
2023-05-08T08:22:33.287Z,13.43
2023-05-08T08:24:59.814Z,13.60
2023-05-08T08:27:26.277Z,14.13
2023-05-08T08:30:04.525Z,16.90
2023-05-08T08:32:39.343Z,12.55
2023-05-08T08:35:06.120Z,12.32
2023-05-08T08:37:32.661Z,11.70
2023-05-08T08:39:59.897Z,11.35
2023-05-08T08:42:26.930Z,10.02
2023-05-08T08:44:53.926Z,9.63
2023-05-08T08:47:23.564Z,11.52
2023-05-08T08:49:51.160Z,8.90
2023-05-08T08:52:32.375Z,8.50
2023-05-08T08:55:01.598Z,11.55
2023-05-08T08:57:33.549Z,10.10
2023-05-08T09:00:04.022Z,10.27
2023-05-08T09:02:31.621Z,9.50
2023-05-08T09:04:58.535Z,10.38
2023-05-08T09:07:25.949Z,11.13
2023-05-08T09:09:53.085Z,10.48
2023-05-08T09:12:19.583Z,12.20
2023-05-08T09:14:46.148Z,11.40
2023-05-08T09:17:12.849Z,16.63
2023-05-08T09:19:39.578Z,12.02
2023-05-08T09:22:07.166Z,18.00
2023-05-08T09:24:57.013Z,11.60
2023-05-08T09:27:25.660Z,11.88
2023-05-08T09:30:04.348Z,10.70
2023-05-08T09:32:32.224Z,10.95
2023-05-08T09:34:59.333Z,10.70
2023-05-08T09:37:26.735Z,13.52
2023-05-08T09:39:53.975Z,14.15
2023-05-08T09:42:20.962Z,13.73
2023-05-08T09:44:49.363Z,11.27
2023-05-08T09:47:18.701Z,14.45
2023-05-08T09:50:02.389Z,17.45
2023-05-08T09:52:29.691Z,11.60
2023-05-08T09:55:05.289Z,13.90
2023-05-08T09:57:34.069Z,11.10
2023-05-08T10:00:09.185Z,10.60
2023-05-08T10:02:39.304Z,10.70
2023-05-08T10:05:27.406Z,10.23
2023-05-08T10:07:54.006Z,10.65
2023-05-08T10:10:27.805Z,12.43
2023-05-08T10:12:55.601Z,11.27
2023-05-08T10:15:29.167Z,9.55
2023-05-08T10:18:04.535Z,10.75
2023-05-08T10:20:35.787Z,9.98
2023-05-08T10:25:32.545Z,9.98
2023-05-08T10:28:26.795Z,9.65
2023-05-08T10:30:54.099Z,10.10
2023-05-08T10:33:21.507Z,9.15
2023-05-08T10:35:48.175Z,9.15
2023-05-08T10:38:15.673Z,10.40
2023-05-08T10:40:42.320Z,8.73
2023-05-08T10:43:10.096Z,9.23
2023-05-08T10:45:37.161Z,8.55
2023-05-08T10:48:11.523Z,9.77
2023-05-08T10:50:51.814Z,9.30
2023-05-08T10:53:29.514Z,8.52
2023-05-08T10:55:56.153Z,9.48
2023-05-08T10:58:31.211Z,8.43
2023-05-08T11:00:59.380Z,8.18
2023-05-08T11:03:31.402Z,7.35
2023-05-08T11:06:00.298Z,7.78
2023-05-08T11:08:28.205Z,7.65
2023-05-08T11:11:05.218Z,12.98
2023-05-08T11:13:36.650Z,7.78
2023-05-08T11:18:41.919Z,8.30
2023-05-08T11:21:18.913Z,11.05
2023-05-08T11:23:56.648Z,8.68
2023-05-08T11:26:38.464Z,19.88
2023-05-08T11:29:16.235Z,9.82
2023-05-08T11:31:52.893Z,10.70
2023-05-08T11:34:38.321Z,10.93
2023-05-08T11:37:09.257Z,9.38
2023-05-08T11:39:35.757Z,11.68
2023-05-08T11:42:27.235Z,8.88
2023-05-08T11:45:06.220Z,7.50
2023-05-08T11:47:38.740Z,9.88
2023-05-08T11:50:06.751Z,9.07
2023-05-08T11:52:36.647Z,10.40
2023-05-08T11:55:07.629Z,7.88
2023-05-08T11:57:34.317Z,18.13
2023-05-08T12:00:05.671Z,8.73
2023-05-08T12:02:42.494Z,11.55
2023-05-08T12:05:10.663Z,11.45
2023-05-08T12:07:47.264Z,11.20
2023-05-08T12:10:15.626Z,11.57
2023-05-08T12:12:43.679Z,10.07
2023-05-08T12:15:13.913Z,10.27
2023-05-08T12:17:41.143Z,10.20
2023-05-08T12:20:16.042Z,10.05
2023-05-08T12:22:49.674Z,8.38
2023-05-08T12:25:17.041Z,10.32
2023-05-08T12:27:44.453Z,8.73
2023-05-08T12:30:14.008Z,8.88
2023-05-08T12:32:41.968Z,11.55
2023-05-08T12:35:09.494Z,7.20
2023-05-08T12:37:36.656Z,6.90
2023-05-08T12:40:04.471Z,5.43
2023-05-08T12:42:44.789Z,7.05
2023-05-08T12:45:20.779Z,7.97
2023-05-08T12:47:51.526Z,7.50
2023-05-08T12:50:21.063Z,9.23
2023-05-08T12:52:49.953Z,6.55
2023-05-08T12:55:26.440Z,8.07
2023-05-08T12:58:07.164Z,4.45
2023-05-08T13:00:43.521Z,5.03
2023-05-08T13:03:12.482Z,5.90
2023-05-08T13:05:43.957Z,5.22
2023-05-08T13:08:11.076Z,5.60
2023-05-08T13:10:52.448Z,4.25
2023-05-08T13:13:26.690Z,4.90
2023-05-08T13:15:55.023Z,4.72
2023-05-08T13:18:27.501Z,4.60
2023-05-08T13:20:55.027Z,4.28
2023-05-08T13:23:22.359Z,4.00
2023-05-08T13:25:48.874Z,3.78
2023-05-08T13:28:15.601Z,3.78
2023-05-08T13:30:42.144Z,3.50
2023-05-08T13:33:08.998Z,3.58
2023-05-08T13:35:36.678Z,3.78
2023-05-08T13:38:03.396Z,3.20
2023-05-08T13:40:30.157Z,3.67
2023-05-08T13:42:56.732Z,3.95
2023-05-08T13:45:23.287Z,4.65
2023-05-08T13:47:51.352Z,4.20
2023-05-08T13:50:19.795Z,4.32
2023-05-08T13:52:46.350Z,3.72
2023-05-08T13:55:13.793Z,4.60
2023-05-08T13:57:41.087Z,4.18
2023-05-08T14:00:09.266Z,4.90
2023-05-08T14:02:37.223Z,4.32
2023-05-08T14:05:07.951Z,4.35
2023-05-08T14:07:35.070Z,3.88
2023-05-08T14:10:02.524Z,3.88
2023-05-08T14:12:29.120Z,3.70
2023-05-08T14:14:55.757Z,3.60
2023-05-08T14:17:22.334Z,3.17
2023-05-08T14:19:48.865Z,3.75
2023-05-08T14:22:15.364Z,2.60
2023-05-08T14:24:41.892Z,2.60
2023-05-08T14:27:08.538Z,3.10
2023-05-08T14:29:35.321Z,2.60
2023-05-08T14:32:02.095Z,2.42
2023-05-08T14:34:28.796Z,2.55
2023-05-08T14:36:55.385Z,2.60
2023-05-08T14:39:22.013Z,2.80
2023-05-08T14:42:10.435Z,2.40
2023-05-08T14:44:35.076Z,3.10
2023-05-08T14:47:01.586Z,2.75
2023-05-08T14:49:37.258Z,2.65
2023-05-08T14:52:06.063Z,3.03
2023-05-08T14:54:33.016Z,3.30
2023-05-08T14:56:59.913Z,3.03
2023-05-08T14:59:26.660Z,3.30
2023-05-08T15:01:53.294Z,3.47
2023-05-08T15:04:20.282Z,3.30
2023-05-08T15:06:47.048Z,3.53
2023-05-08T15:09:13.651Z,3.65
2023-05-08T15:11:40.372Z,3.08
2023-05-08T15:14:06.979Z,3.53
2023-05-08T15:16:33.734Z,3.45
2023-05-08T15:19:00.496Z,3.28
2023-05-08T15:21:27.359Z,3.40
2023-05-08T15:23:54.734Z,3.78
2023-05-08T15:26:22.080Z,3.60
2023-05-08T15:28:48.721Z,3.45
2023-05-08T15:31:15.729Z,4.10
2023-05-08T15:33:44.774Z,3.63
2023-05-08T15:36:13.062Z,3.15
2023-05-08T15:38:40.822Z,3.47
2023-05-08T15:41:07.778Z,4.00
2023-05-08T15:43:34.586Z,3.30
2023-05-08T15:46:01.367Z,4.00
2023-05-08T15:48:27.944Z,3.47
2023-05-08T15:50:54.546Z,3.70
2023-05-08T15:53:21.115Z,2.92
2023-05-08T15:55:47.759Z,3.35
2023-05-08T15:58:14.290Z,3.22
2023-05-08T16:00:45.124Z,3.00
2023-05-08T16:03:12.154Z,3.80
2023-05-08T16:05:39.640Z,3.50
2023-05-08T16:08:07.554Z,3.40
2023-05-08T16:10:34.417Z,3.65
2023-05-08T16:13:01.082Z,3.28
2023-05-08T16:15:27.687Z,3.55
2023-05-08T16:17:54.386Z,4.10
2023-05-08T16:20:21.102Z,4.32
2023-05-08T16:22:47.668Z,4.80
2023-05-08T16:25:14.478Z,4.85
2023-05-08T16:27:41.210Z,4.95
2023-05-08T16:30:08.289Z,5.65
2023-05-08T16:32:34.893Z,5.22
2023-05-08T16:35:01.427Z,5.55
2023-05-08T16:37:28.064Z,5.80
2023-05-08T16:39:54.613Z,6.75
2023-05-08T16:42:21.262Z,6.38
2023-05-08T16:44:47.804Z,6.70
2023-05-08T16:47:14.520Z,7.05
2023-05-08T16:49:41.177Z,6.28
2023-05-08T16:52:07.750Z,7.70
2023-05-08T16:54:34.275Z,7.55
2023-05-08T16:57:00.822Z,8.57
2023-05-08T16:59:27.437Z,9.15
2023-05-08T17:01:54.215Z,8.88
2023-05-08T17:04:20.803Z,8.98
2023-05-08T17:06:47.499Z,10.30
2023-05-08T17:09:14.021Z,9.93
2023-05-08T17:11:40.623Z,9.65
2023-05-08T17:14:07.236Z,8.85
2023-05-08T17:16:33.778Z,9.82
2023-05-08T17:19:00.549Z,10.20
2023-05-08T17:21:27.092Z,9.65
2023-05-08T17:23:53.700Z,9.15
2023-05-08T17:26:21.702Z,10.68
2023-05-08T17:28:48.328Z,10.82
2023-05-08T17:31:15.875Z,10.70
2023-05-08T17:33:42.541Z,9.35
2023-05-08T17:36:09.269Z,9.95
2023-05-08T17:38:38.234Z,11.10
2023-05-08T17:41:04.776Z,10.30
2023-05-08T17:43:31.438Z,9.98
2023-05-08T17:45:58.067Z,10.30
2023-05-08T17:48:24.749Z,11.10
2023-05-08T17:50:51.288Z,10.63
2023-05-08T17:53:17.914Z,10.38
2023-05-08T17:55:44.434Z,10.32
2023-05-08T17:58:10.986Z,10.65
2023-05-08T18:00:37.782Z,10.75
2023-05-08T18:03:04.590Z,11.18
2023-05-08T18:05:31.410Z,11.50
2023-05-08T18:07:57.929Z,10.82
2023-05-08T18:10:24.518Z,11.15
2023-05-08T18:12:51.159Z,10.43
2023-05-08T18:15:17.772Z,10.60
2023-05-08T18:17:44.445Z,10.85
2023-05-08T18:20:11.563Z,10.07
2023-05-08T18:22:38.237Z,10.40
2023-05-08T18:25:05.142Z,10.18
2023-05-08T18:27:34.185Z,10.07
2023-05-08T18:30:01.404Z,10.48
2023-05-08T18:32:28.989Z,9.52
2023-05-08T18:34:56.783Z,9.65
2023-05-08T18:37:23.986Z,10.25
2023-05-08T18:39:50.571Z,9.75
2023-05-08T18:42:17.144Z,10.02
2023-05-08T18:44:43.790Z,9.70
2023-05-08T18:47:10.310Z,10.55
2023-05-08T18:49:36.983Z,10.65
2023-05-08T18:52:03.530Z,9.90
2023-05-08T18:54:30.142Z,9.95
2023-05-08T18:56:56.641Z,10.48
2023-05-08T18:59:23.170Z,9.95
2023-05-08T19:01:50.533Z,11.15
2023-05-08T19:04:17.091Z,10.93
2023-05-08T19:06:43.783Z,11.32
2023-05-08T19:09:10.400Z,10.80
2023-05-08T19:11:36.981Z,10.57
2023-05-08T19:14:03.961Z,9.68
2023-05-08T19:16:30.583Z,11.15
2023-05-08T19:18:57.194Z,10.82
2023-05-08T19:21:23.752Z,11.15
2023-05-08T19:23:50.908Z,12.95
2023-05-08T19:26:18.060Z,11.35
2023-05-08T19:28:44.590Z,10.60
2023-05-08T19:31:11.138Z,10.55
2023-05-08T19:33:37.672Z,13.07
2023-05-08T19:36:04.219Z,11.05
2023-05-08T19:38:30.872Z,12.93
2023-05-08T19:40:58.118Z,10.73
2023-05-08T19:43:26.716Z,11.70
2023-05-08T19:45:55.162Z,11.50
2023-05-08T19:48:21.931Z,10.98
2023-05-08T19:50:48.621Z,10.95
2023-05-08T19:53:15.193Z,11.30
2023-05-08T19:55:42.653Z,11.35
2023-05-08T19:58:09.218Z,10.68
2023-05-08T20:00:35.813Z,10.23
2023-05-08T20:03:02.568Z,10.52
2023-05-08T20:05:29.276Z,9.50
2023-05-08T20:07:55.848Z,9.75
2023-05-08T20:10:22.528Z,11.77
2023-05-08T20:12:49.094Z,9.10
2023-05-08T20:15:15.731Z,10.70
2023-05-08T20:17:43.394Z,9.05
2023-05-08T20:20:10.621Z,11.27
2023-05-08T20:22:37.802Z,10.85
2023-05-08T20:25:05.104Z,9.13
2023-05-08T20:27:31.728Z,10.10
2023-05-08T20:29:58.363Z,8.68
2023-05-08T20:32:25.058Z,10.50
2023-05-08T20:34:51.868Z,8.00
2023-05-08T20:37:18.575Z,8.65
2023-05-08T20:39:45.187Z,7.70
2023-05-08T20:42:11.875Z,8.60
2023-05-08T20:44:38.722Z,9.30
2023-05-08T20:47:06.038Z,9.95
2023-05-08T20:49:32.987Z,10.60
2023-05-08T20:51:59.588Z,8.85
2023-05-08T20:54:26.109Z,10.45
2023-05-08T20:56:52.571Z,9.35
2023-05-08T20:59:19.185Z,9.63
2023-05-08T21:01:46.904Z,9.02
2023-05-08T21:04:13.499Z,9.48
2023-05-08T21:06:40.128Z,11.60
2023-05-08T21:09:07.144Z,9.63
2023-05-08T21:11:33.846Z,13.02
2023-05-08T21:14:00.349Z,9.38
2023-05-08T21:16:27.225Z,14.00
2023-05-08T21:18:55.361Z,10.30
2023-05-08T21:21:23.332Z,10.30
2023-05-08T21:23:49.917Z,10.20
2023-05-08T21:26:18.002Z,9.68
2023-05-08T21:28:44.511Z,12.73
2023-05-08T21:31:11.048Z,10.20
2023-05-08T21:33:37.639Z,12.77
2023-05-08T21:36:04.306Z,11.32
2023-05-08T21:38:30.868Z,11.82
2023-05-08T21:40:57.480Z,11.90
2023-05-08T21:43:24.021Z,10.65
2023-05-08T21:45:50.629Z,12.80
2023-05-08T21:48:17.746Z,11.27
2023-05-08T21:50:44.340Z,13.55
2023-05-08T21:53:10.849Z,10.75
2023-05-08T21:55:37.393Z,12.82
2023-05-08T21:58:03.961Z,10.80
2023-05-08T22:00:30.530Z,16.58
2023-05-08T22:02:57.132Z,11.52
2023-05-08T22:05:24.405Z,11.77
2023-05-08T22:07:51.000Z,11.65
2023-05-08T22:10:17.742Z,14.50
2023-05-08T22:12:44.321Z,13.75
2023-05-08T22:15:25.481Z,12.27
2023-05-08T22:17:52.820Z,12.55
2023-05-08T22:20:19.978Z,15.88
2023-05-08T22:22:47.382Z,15.05
2023-05-08T22:25:14.425Z,12.90
2023-05-08T22:27:41.295Z,15.77
2023-05-08T22:30:08.092Z,14.60
2023-05-08T22:32:34.758Z,15.93
2023-05-08T22:35:01.403Z,12.30
2023-05-08T22:37:27.930Z,13.68
2023-05-08T22:39:54.439Z,12.00
2023-05-08T22:42:20.968Z,13.38
2023-05-08T22:44:47.610Z,15.45
2023-05-08T22:47:14.187Z,13.07
2023-05-08T22:49:41.386Z,13.20
2023-05-08T22:52:09.011Z,13.25
2023-05-08T22:54:35.690Z,16.67
2023-05-08T22:57:02.788Z,14.63
2023-05-08T22:59:29.388Z,14.23
2023-05-08T23:01:55.887Z,15.25
2023-05-08T23:04:22.784Z,14.38
2023-05-08T23:06:49.616Z,15.65
2023-05-08T23:09:16.366Z,14.93
2023-05-08T23:11:42.931Z,16.20
2023-05-08T23:14:09.444Z,14.30
2023-05-08T23:16:36.065Z,17.98
2023-05-08T23:19:04.381Z,15.05
2023-05-08T23:21:31.875Z,16.58
2023-05-08T23:23:58.891Z,16.63
2023-05-08T23:26:25.967Z,19.92
2023-05-08T23:28:52.579Z,15.90
2023-05-08T23:31:19.153Z,16.33
2023-05-08T23:33:45.820Z,16.02
2023-05-08T23:36:12.353Z,16.27
2023-05-08T23:38:38.890Z,15.65
2023-05-08T23:41:05.515Z,16.55
2023-05-08T23:43:32.082Z,15.02
2023-05-08T23:45:58.684Z,17.35
2023-05-08T23:48:25.784Z,23.20
2023-05-08T23:50:52.361Z,16.55
2023-05-08T23:53:19.061Z,29.92
2023-05-08T23:55:46.590Z,17.23
2023-05-08T23:58:13.129Z,22.02
